Sea Isle City, New Jersey
Current Conditions -  °F | °C
As of 11:35 AM on Tuesday 21 Oct 2014 (Local Time) from KWWD Reporting Station
Scattered Clouds Scattered Clouds  
Wind Chill: 64°   Ceiling: Unl
Heat Index: 64°   Visibility: 10mi
Dew Point: 50°   Wind: 7mph
Humidity: 59%   Direction: 280°W
Pressure: 29.88"   Gusts: NA
Location:  39.15°N, 74.69°W
Report Text: KWWD 211535Z AUTO 28006KT 10SM FEW070 SCT085 18/10 A2988 RMK AO1
Loading
Personal Weather Stations






























Interactive Weather Map New forecast layout! Learn more

10-Day Weather Forecast

Advertisements
Track Severe Weather on mobile